Time;durP1;ratioP1;P1;durP2;ratioP2;P2;SDS_P1;SDS_P2;PMS_P1;PMS_P2;Temp;Humidity;BMP_temperature;BMP_pressure;BME280_temperature;BME280_humidity;BME280_pressure;Samples;Min_cycle;Max_cycle;Signal;HPM_P1;HPM_P2
2021/01/21 00:01:46;;;;;;;3.92;1.23;;;6.40;95.00;;;;;;5085886;28;20552;-62
2021/01/21 00:04:13;;;;;;;4.05;1.58;;;6.30;95.00;;;;;;5089800;28;20115;-62
2021/01/21 00:06:40;;;;;;;4.82;1.33;;;6.30;95.00;;;;;;5088002;28;20051;-62
2021/01/21 00:09:07;;;;;;;3.78;1.52;;;6.30;94.90;;;;;;5080962;28;20138;-62
2021/01/21 00:11:33;;;;;;;3.78;1.23;;;6.30;94.90;;;;;;5086231;28;20040;-62
2021/01/21 00:14:00;;;;;;;3.42;1.45;;;6.30;94.80;;;;;;5076564;28;20455;-62
2021/01/21 00:16:27;;;;;;;3.53;1.20;;;6.30;94.90;;;;;;5071419;28;20044;-62
2021/01/21 00:18:54;;;;;;;4.35;1.85;;;6.30;94.80;;;;;;5071880;28;20044;-62
2021/01/21 00:21:20;;;;;;;3.70;1.30;;;6.30;94.70;;;;;;5074864;28;20044;-62
2021/01/21 00:23:47;;;;;;;5.35;1.25;;;6.30;94.80;;;;;;5074131;28;20048;-62
2021/01/21 00:26:13;;;;;;;2.83;1.15;;;6.30;94.80;;;;;;5072183;28;20832;-62
2021/01/21 00:28:40;;;;;;;3.58;1.20;;;6.30;94.60;;;;;;5074121;28;20045;-62
2021/01/21 00:31:06;;;;;;;4.22;1.30;;;6.20;94.70;;;;;;5078786;28;20055;-62
2021/01/21 00:33:33;;;;;;;3.63;1.50;;;6.20;94.60;;;;;;5082685;28;20036;-62
2021/01/21 00:35:59;;;;;;;3.75;1.10;;;6.20;94.80;;;;;;5076314;28;20487;-62
2021/01/21 00:38:26;;;;;;;4.07;1.35;;;6.20;94.80;;;;;;5072783;28;20492;-62
2021/01/21 00:40:53;;;;;;;6.10;1.40;;;6.20;94.90;;;;;;5085027;28;20398;-62
2021/01/21 00:43:20;;;;;;;3.70;1.38;;;6.10;94.80;;;;;;5081165;28;20048;-62
2021/01/21 00:45:46;;;;;;;3.20;1.38;;;6.10;94.90;;;;;;5079748;28;20059;-62
2021/01/21 00:48:13;;;;;;;3.70;1.20;;;6.10;95.00;;;;;;5071958;28;20753;-62
2021/01/21 00:50:39;;;;;;;5.03;1.20;;;6.10;95.00;;;;;;5084347;28;20032;-62
2021/01/21 00:53:10;;;;;;;5.82;1.67;;;6.10;95.10;;;;;;5070502;28;20118;-62
2021/01/21 00:55:37;;;;;;;4.43;1.50;;;6.00;95.10;;;;;;5071838;28;20047;-62
2021/01/21 00:58:05;;;;;;;2.53;1.30;;;6.10;95.10;;;;;;5070948;28;20045;-62
2021/01/21 01:00:31;;;;;;;4.30;1.45;;;6.10;95.00;;;;;;5069322;28;20097;-61
2021/01/21 01:02:58;;;;;;;3.47;1.15;;;6.10;94.90;;;;;;5085231;28;20540;-62
2021/01/21 01:05:29;;;;;;;4.18;1.15;;;6.10;94.90;;;;;;5084092;28;20036;-62
2021/01/21 01:07:56;;;;;;;4.60;1.65;;;6.10;94.70;;;;;;5071019;28;20037;-63
2021/01/21 01:10:23;;;;;;;4.35;1.73;;;6.10;94.80;;;;;;5057358;28;20117;-62
2021/01/21 01:12:49;;;;;;;5.25;1.40;;;6.10;94.80;;;;;;5087009;28;20085;-62
2021/01/21 01:15:16;;;;;;;3.00;1.20;;;6.10;94.70;;;;;;5077339;28;20044;-62
2021/01/21 01:17:43;;;;;;;4.43;1.42;;;6.10;94.70;;;;;;5069458;28;20445;-62
2021/01/21 01:20:09;;;;;;;3.35;1.20;;;6.10;94.80;;;;;;5081276;28;20552;-62
2021/01/21 01:22:37;;;;;;;2.90;1.13;;;6.10;94.70;;;;;;5071297;28;20041;-62
2021/01/21 01:25:04;;;;;;;4.28;0.85;;;6.10;94.60;;;;;;5069125;28;20426;-62
2021/01/21 01:27:31;;;;;;;3.35;1.20;;;6.10;94.70;;;;;;5053701;28;20055;-62
2021/01/21 01:29:59;;;;;;;3.97;1.30;;;6.10;94.60;;;;;;5079172;28;20050;-63
2021/01/21 01:32:25;;;;;;;3.28;1.02;;;6.10;94.60;;;;;;5085172;28;20045;-62
2021/01/21 01:34:54;;;;;;;3.92;1.20;;;6.20;94.50;;;;;;5068122;28;20506;-62
2021/01/21 01:37:21;;;;;;;3.72;1.38;;;6.20;94.50;;;;;;5069754;28;20478;-62
2021/01/21 01:39:56;;;;;;;3.67;1.33;;;6.20;94.50;;;;;;5070702;28;20048;-62
2021/01/21 01:42:39;;;;;;;3.45;1.15;;;6.20;94.50;;;;;;5073459;28;20044;-62
2021/01/21 01:45:11;;;;;;;4.15;1.30;;;6.20;94.50;;;;;;5085134;28;20372;-62
2021/01/21 01:47:44;;;;;;;4.18;1.40;;;6.20;94.60;;;;;;5070145;28;20049;-62
2021/01/21 01:50:24;;;;;;;6.20;1.33;;;6.20;94.60;;;;;;5079691;28;20123;-62
2021/01/21 01:52:53;;;;;;;5.05;1.90;;;6.20;94.50;;;;;;5075435;28;20040;-62
2021/01/21 01:55:22;;;;;;;4.72;1.60;;;6.10;94.50;;;;;;5076584;28;20437;-62
2021/01/21 01:58:15;;;;;;;2.75;1.33;;;6.10;94.50;;;;;;5062886;28;20048;-63
2021/01/21 02:00:52;;;;;;;;;;;6.20;94.70;;;;;;5080132;28;20044;-62
2021/01/21 02:03:21;;;;;;;4.50;1.65;;;6.10;94.40;;;;;;5071300;28;19928;-62
2021/01/21 02:06:08;;;;;;;3.15;1.15;;;6.20;94.30;;;;;;5064457;28;20062;-61
2021/01/21 02:08:34;;;;;;;3.92;1.45;;;6.10;94.30;;;;;;5069696;28;20496;-62
2021/01/21 02:11:08;;;;;;;3.58;1.35;;;6.20;94.30;;;;;;5071227;28;20123;-62
2021/01/21 02:14:02;;;;;;;3.17;1.52;;;6.20;94.20;;;;;;5078698;28;20044;-62
2021/01/21 02:16:47;;;;;;;3.08;1.10;;;6.20;93.90;;;;;;5080012;28;20041;-62
2021/01/21 02:19:49;;;;;;;2.75;1.30;;;6.20;94.00;;;;;;5068934;28;20562;-62
2021/01/21 02:22:19;;;;;;;2.85;0.93;;;6.30;93.70;;;;;;5069463;28;20051;-62
2021/01/21 02:25:28;;;;;;;3.40;0.98;;;6.40;93.50;;;;;;5084303;28;20068;-62
2021/01/21 02:28:08;;;;;;;2.47;1.10;;;6.40;93.30;;;;;;5072854;28;20053;-62
2021/01/21 02:30:53;;;;;;;2.22;0.98;;;6.50;93.00;;;;;;5057412;28;20089;-62
2021/01/21 02:33:55;;;;;;;2.47;1.10;;;6.60;92.90;;;;;;5073360;28;20527;-62
2021/01/21 02:36:43;;;;;;;4.05;1.05;;;6.60;92.70;;;;;;5073827;28;20623;-62
2021/01/21 02:39:44;;;;;;;1.67;0.80;;;6.60;92.40;;;;;;5073141;28;20503;-62
2021/01/21 02:42:10;;;;;;;3.13;1.17;;;6.70;92.30;;;;;;5068488;28;20052;-62
2021/01/21 02:44:37;;;;;;;4.88;1.23;;;6.60;92.10;;;;;;5070134;28;20552;-63
2021/01/21 02:47:03;;;;;;;3.08;1.10;;;6.70;92.00;;;;;;5075603;28;20064;-62
2021/01/21 02:49:32;;;;;;;2.80;0.93;;;6.70;91.80;;;;;;5080932;28;20368;-62
2021/01/21 02:52:00;;;;;;;4.18;1.08;;;6.80;91.70;;;;;;5073817;28;20064;-62
2021/01/21 02:54:45;;;;;;;2.78;0.95;;;6.70;91.60;;;;;;5072009;28;20131;-63
2021/01/21 02:57:26;;;;;;;2.75;1.05;;;6.70;91.40;;;;;;5082081;28;20037;-62
2021/01/21 02:59:57;;;;;;;1.48;0.68;;;6.70;91.40;;;;;;5056140;28;20049;-62
2021/01/21 03:02:27;;;;;;;2.67;0.85;;;6.70;91.60;;;;;;5064958;28;20419;-62
2021/01/21 03:04:56;;;;;;;2.67;1.00;;;6.70;91.60;;;;;;5076427;28;20135;-62
2021/01/21 03:07:25;;;;;;;2.90;0.85;;;6.60;91.60;;;;;;5075306;28;20044;-62
2021/01/21 03:09:55;;;;;;;3.17;0.77;;;6.60;91.80;;;;;;5090659;28;20052;-62
2021/01/21 03:12:24;;;;;;;2.75;0.98;;;6.60;91.80;;;;;;5078746;28;20486;-62
2021/01/21 03:14:56;;;;;;;4.25;1.20;;;6.50;92.20;;;;;;5088961;28;20036;-62
2021/01/21 03:17:29;;;;;;;3.55;1.17;;;6.40;92.00;;;;;;5076316;28;20461;-62
2021/01/21 03:20:11;;;;;;;2.28;1.17;;;6.40;92.00;;;;;;5072504;28;20044;-62
2021/01/21 03:22:38;;;;;;;3.00;0.80;;;6.40;92.00;;;;;;5084109;28;20052;-62
2021/01/21 03:25:05;;;;;;;4.28;1.10;;;6.30;92.10;;;;;;5073542;28;20048;-62
2021/01/21 03:27:39;;;;;;;3.88;1.08;;;6.30;92.10;;;;;;5084368;28;20110;-62
2021/01/21 03:30:15;;;;;;;2.58;0.98;;;6.30;92.20;;;;;;5073643;28;20426;-61
2021/01/21 03:32:43;;;;;;;2.97;1.13;;;6.20;92.40;;;;;;5082971;28;20056;-62
2021/01/21 03:35:09;;;;;;;2.67;1.23;;;6.20;92.50;;;;;;5087621;28;20033;-62
2021/01/21 03:37:36;;;;;;;2.40;0.77;;;6.20;92.60;;;;;;5080704;28;20044;-62
2021/01/21 03:40:04;;;;;;;4.13;1.00;;;6.10;92.70;;;;;;5086737;28;20040;-62
2021/01/21 03:42:34;;;;;;;2.60;1.13;;;6.10;92.70;;;;;;5077213;28;20109;-62
2021/01/21 03:45:22;;;;;;;3.60;1.20;;;6.10;92.80;;;;;;5072576;28;20108;-63
2021/01/21 03:47:50;;;;;;;4.40;0.75;;;6.10;92.80;;;;;;5075171;28;20051;-62
2021/01/21 03:50:19;;;;;;;3.20;0.90;;;6.10;92.70;;;;;;5072086;28;20049;-62
2021/01/21 03:52:48;;;;;;;1.98;0.82;;;6.10;92.80;;;;;;5072551;28;20037;-62
2021/01/21 03:55:22;;;;;;;3.20;1.00;;;6.00;92.80;;;;;;5072201;28;20796;-62
2021/01/21 03:58:02;;;;;;;3.13;0.88;;;6.00;92.90;;;;;;5077520;28;20040;-62
2021/01/21 04:00:36;;;;;;;2.58;0.63;;;5.90;92.80;;;;;;5075590;28;20040;-62
2021/01/21 04:03:03;;;;;;;4.45;1.02;;;5.90;93.00;;;;;;5081988;28;20124;-62
2021/01/21 04:05:41;;;;;;;4.00;0.80;;;5.80;93.00;;;;;;5056525;28;20040;-62
2021/01/21 04:08:08;;;;;;;2.67;0.60;;;5.70;93.30;;;;;;5076317;28;20215;-62
2021/01/21 04:10:43;;;;;;;4.82;1.60;;;5.70;93.60;;;;;;5077838;28;20086;-62
2021/01/21 04:13:32;;;;;;;3.03;0.90;;;5.50;93.80;;;;;;5073664;28;20048;-62
2021/01/21 04:16:09;;;;;;;2.20;0.90;;;5.50;94.00;;;;;;5066685;28;20045;-62
2021/01/21 04:18:37;;;;;;;1.63;0.57;;;5.40;94.40;;;;;;5072078;28;20048;-62
2021/01/21 04:21:07;;;;;;;2.13;0.60;;;5.40;94.30;;;;;;5075678;28;20155;-62
2021/01/21 04:23:35;;;;;;;1.85;0.70;;;5.40;94.50;;;;;;5077677;28;20054;-62
2021/01/21 04:26:09;;;;;;;3.97;0.88;;;5.30;94.70;;;;;;5054218;28;20830;-62
2021/01/21 04:28:39;;;;;;;3.08;1.00;;;5.30;94.80;;;;;;5061242;28;20672;-62
2021/01/21 04:31:06;;;;;;;4.50;1.17;;;5.30;95.00;;;;;;5078970;28;20037;-62
2021/01/21 04:33:33;;;;;;;3.75;0.90;;;5.20;95.10;;;;;;5071324;28;20094;-62
2021/01/21 04:36:00;;;;;;;3.60;1.05;;;5.20;95.10;;;;;;5089741;28;20610;-62
2021/01/21 04:38:34;;;;;;;2.42;0.90;;;5.20;95.10;;;;;;5082610;28;20077;-62
2021/01/21 04:41:05;;;;;;;3.50;0.95;;;5.30;95.00;;;;;;5071039;28;20102;-62
2021/01/21 04:43:59;;;;;;;3.38;0.70;;;5.30;94.80;;;;;;5062366;28;20502;-62
2021/01/21 04:46:40;;;;;;;3.20;0.60;;;5.40;94.50;;;;;;5072299;28;20098;-62
2021/01/21 04:49:08;;;;;;;1.90;0.65;;;5.40;94.40;;;;;;5080472;28;20070;-62
2021/01/21 04:51:38;;;;;;;4.20;0.80;;;5.50;94.20;;;;;;5072360;28;20048;-62
2021/01/21 04:54:20;;;;;;;3.42;0.70;;;5.50;94.00;;;;;;5056038;28;20060;-62
2021/01/21 04:57:02;;;;;;;5.75;0.70;;;5.60;93.90;;;;;;5076011;28;20044;-62
2021/01/21 04:59:53;;;;;;;2.95;0.65;;;5.60;93.70;;;;;;5079473;28;20056;-62
2021/01/21 05:02:44;;;;;;;2.65;0.82;;;5.60;93.50;;;;;;5078518;28;20118;-62
2021/01/21 05:05:40;;;;;;;2.60;0.68;;;5.60;93.50;;;;;;5069176;28;20060;-62
2021/01/21 05:08:10;;;;;;;3.20;0.70;;;5.60;93.40;;;;;;5074672;28;20787;-62
2021/01/21 05:10:48;;;;;;;2.30;0.82;;;5.60;93.40;;;;;;5056045;28;20064;-62
2021/01/21 05:13:21;;;;;;;2.72;0.80;;;5.60;93.30;;;;;;5076980;28;20506;-62
2021/01/21 05:16:24;;;;;;;1.85;0.70;;;5.70;93.30;;;;;;5078884;28;20547;-62
2021/01/21 05:19:18;;;;;;;4.10;0.90;;;5.60;93.30;;;;;;5078736;28;20825;-62
2021/01/21 05:22:12;;;;;;;2.35;0.52;;;5.60;93.20;;;;;;5070544;28;20052;-62
2021/01/21 05:24:57;;;;;;;4.50;1.08;;;5.60;93.60;;;;;;5086522;28;20071;-62
2021/01/21 05:27:44;;;;;;;5.40;1.40;;;5.50;93.40;;;;;;5074970;28;20055;-62
2021/01/21 05:30:36;;;;;;;3.45;0.73;;;5.50;93.40;;;;;;5069838;28;20049;-62
2021/01/21 05:33:03;;;;;;;2.25;0.60;;;5.60;93.30;;;;;;5078413;28;20076;-62
2021/01/21 05:35:51;;;;;;;2.10;0.68;;;5.60;93.10;;;;;;5078424;28;20044;-62
2021/01/21 05:38:21;;;;;;;5.65;1.30;;;5.70;93.00;;;;;;5071964;28;20144;-62
2021/01/21 05:41:08;;;;;;;2.13;0.50;;;5.80;92.80;;;;;;5073787;28;20049;-63
2021/01/21 05:43:52;;;;;;;2.15;1.08;;;5.90;92.50;;;;;;5058939;28;20055;-62
2021/01/21 05:46:31;;;;;;;3.00;0.70;;;6.00;92.30;;;;;;5077986;28;20040;-62
2021/01/21 05:48:58;;;;;;;1.65;0.70;;;6.00;92.00;;;;;;5071334;28;20051;-62
2021/01/21 05:51:29;;;;;;;8.88;2.10;;;6.10;92.00;;;;;;5068829;28;20068;-62
2021/01/21 05:54:02;;;;;;;5.63;1.50;;;6.10;92.00;;;;;;5067724;28;20051;-62
2021/01/21 05:56:38;;;;;;;2.60;0.55;;;6.10;91.90;;;;;;5077650;28;20274;-62
2021/01/21 05:59:16;;;;;;;2.42;0.85;;;6.10;91.80;;;;;;5081219;28;20048;-62
2021/01/21 06:01:48;;;;;;;3.83;1.00;;;6.20;91.80;;;;;;5063712;28;20075;-62
2021/01/21 06:04:27;;;;;;;;;;;6.10;91.80;;;;;;5071388;28;20048;-62
2021/01/21 06:06:54;;;;;;;1.95;0.60;;;6.10;91.80;;;;;;5081926;28;19939;-62
2021/01/21 06:09:31;;;;;;;2.88;0.47;;;6.10;91.80;;;;;;5080197;28;20040;-62
2021/01/21 06:12:00;;;;;;;3.35;0.77;;;6.10;91.80;;;;;;5070426;28;20123;-62
2021/01/21 06:14:26;;;;;;;5.38;1.10;;;6.10;91.90;;;;;;5069126;28;20048;-62
2021/01/21 06:16:54;;;;;;;1.80;0.55;;;6.10;91.90;;;;;;5071787;28;20048;-62
2021/01/21 06:19:21;;;;;;;0.85;0.30;;;6.20;92.00;;;;;;5075768;28;20046;-62
2021/01/21 06:22:06;;;;;;;1.60;0.50;;;6.20;91.90;;;;;;5076007;28;20418;-62
2021/01/21 06:24:59;;;;;;;3.95;0.80;;;6.20;91.90;;;;;;5081962;28;20083;-62
2021/01/21 06:27:27;;;;;;;2.70;0.52;;;6.20;91.80;;;;;;5079776;28;20047;-62
2021/01/21 06:29:56;;;;;;;1.80;0.50;;;6.20;91.80;;;;;;5080600;28;20434;-62
2021/01/21 06:32:37;;;;;;;2.03;0.40;;;6.10;91.80;;;;;;5077407;28;20064;-63
2021/01/21 06:35:05;;;;;;;2.28;0.40;;;6.10;91.80;;;;;;5068645;28;20110;-62
2021/01/21 06:37:36;;;;;;;4.50;0.90;;;6.10;91.80;;;;;;5052565;28;20044;-62
2021/01/21 06:40:08;;;;;;;2.33;0.63;;;6.10;91.90;;;;;;5069897;28;20052;-62
2021/01/21 06:42:38;;;;;;;2.83;0.63;;;6.10;92.00;;;;;;5082558;28;20048;-62
2021/01/21 06:45:06;;;;;;;5.28;0.60;;;6.10;92.10;;;;;;5085671;28;20556;-61
2021/01/21 06:47:34;;;;;;;3.28;0.98;;;6.10;92.10;;;;;;5077329;28;20043;-63
2021/01/21 06:50:04;;;;;;;3.83;0.93;;;6.10;92.10;;;;;;5080185;28;20044;-62
2021/01/21 06:52:35;;;;;;;3.45;1.23;;;6.10;92.00;;;;;;5079052;28;20043;-62
2021/01/21 06:55:03;;;;;;;4.00;1.60;;;6.10;92.20;;;;;;5074167;28;20048;-62
2021/01/21 06:57:36;;;;;;;2.47;1.05;;;6.00;92.20;;;;;;5074223;28;20076;-62
2021/01/21 07:00:13;;;;;;;3.95;0.80;;;6.00;92.20;;;;;;5083676;28;20119;-62
2021/01/21 07:02:47;;;;;;;4.43;1.23;;;6.00;92.30;;;;;;5087349;28;20055;-62
2021/01/21 07:05:20;;;;;;;2.50;0.98;;;6.00;92.30;;;;;;5074892;28;20040;-62
2021/01/21 07:08:05;;;;;;;1.95;0.70;;;6.00;92.40;;;;;;5080411;28;20051;-62
2021/01/21 07:10:45;;;;;;;3.20;0.57;;;6.00;92.40;;;;;;5071593;28;20044;-62
2021/01/21 07:13:22;;;;;;;2.90;1.13;;;6.00;92.50;;;;;;5080380;28;20037;-61
2021/01/21 07:15:50;;;;;;;3.80;1.13;;;6.00;92.60;;;;;;5071183;28;20043;-62
2021/01/21 07:18:22;;;;;;;4.78;1.15;;;6.00;92.70;;;;;;5071165;28;21050;-61
2021/01/21 07:21:08;;;;;;;5.03;1.15;;;6.10;92.80;;;;;;5069651;28;20047;-62
2021/01/21 07:23:46;;;;;;;3.25;1.00;;;6.10;92.80;;;;;;5070451;28;20047;-62
2021/01/21 07:26:32;;;;;;;4.38;1.00;;;6.20;92.60;;;;;;5101223;28;20044;-62
2021/01/21 07:29:03;;;;;;;3.30;1.23;;;6.30;92.50;;;;;;5078904;28;20441;-62
2021/01/21 07:31:50;;;;;;;3.95;1.40;;;6.30;92.50;;;;;;5071414;28;20458;-61
2021/01/21 07:34:37;;;;;;;4.63;1.20;;;6.40;92.50;;;;;;5076837;28;20067;-62
2021/01/21 07:37:14;;;;;;;4.90;1.23;;;6.40;92.50;;;;;;5076362;28;20119;-62
2021/01/21 07:39:49;;;;;;;2.35;0.80;;;6.50;92.30;;;;;;5082109;28;20032;-62
2021/01/21 07:42:21;;;;;;;3.22;1.00;;;6.50;92.30;;;;;;5073794;28;20048;-62
2021/01/21 07:44:55;;;;;;;6.75;1.63;;;6.60;92.20;;;;;;5061289;28;20063;-61
2021/01/21 07:47:38;;;;;;;4.20;1.60;;;6.70;92.10;;;;;;5072454;28;20419;-62
2021/01/21 07:50:22;;;;;;;7.13;1.90;;;6.70;92.00;;;;;;5073045;28;20398;-61
2021/01/21 07:52:52;;;;;;;3.35;1.33;;;6.80;91.90;;;;;;5064323;28;20046;-61
2021/01/21 07:55:34;;;;;;;5.65;1.65;;;6.80;91.90;;;;;;5078625;28;20051;-61
2021/01/21 07:58:30;;;;;;;5.07;1.30;;;6.80;92.00;;;;;;5074377;28;20048;-61
2021/01/21 08:01:02;;;;;;;4.80;1.60;;;6.90;92.00;;;;;;5074833;28;20048;-61
2021/01/21 08:03:30;;;;;;;3.50;1.25;;;6.90;91.90;;;;;;5079425;28;20063;-62
2021/01/21 08:06:11;;;;;;;3.78;1.17;;;7.00;91.90;;;;;;5075598;28;20159;-61
2021/01/21 08:08:40;;;;;;;8.00;1.63;;;7.00;91.90;;;;;;5080373;28;20093;-62
2021/01/21 08:11:09;;;;;;;4.22;0.95;;;7.10;92.00;;;;;;5075256;28;20053;-61
2021/01/21 08:13:38;;;;;;;2.90;0.90;;;7.10;92.10;;;;;;5058187;28;20059;-61
2021/01/21 08:16:05;;;;;;;3.30;1.17;;;7.10;92.00;;;;;;5060068;28;20074;-61
2021/01/21 08:18:34;;;;;;;3.50;1.27;;;7.20;92.20;;;;;;5073888;28;20047;-61
2021/01/21 08:21:17;;;;;;;8.88;1.70;;;7.20;92.00;;;;;;5072044;28;20048;-62
2021/01/21 08:23:51;;;;;;;3.80;1.58;;;7.30;91.90;;;;;;5082476;28;20051;-62
2021/01/21 08:26:17;;;;;;;4.07;1.70;;;7.40;91.90;;;;;;5080118;28;20040;-62
2021/01/21 08:28:44;;;;;;;4.78;1.98;;;7.40;91.60;;;;;;5077126;28;20051;-62
2021/01/21 08:31:11;;;;;;;9.38;1.30;;;7.40;91.60;;;;;;5078248;28;20039;-63
2021/01/21 08:33:39;;;;;;;3.40;1.20;;;7.50;92.00;;;;;;5071872;28;20067;-62
2021/01/21 08:36:08;;;;;;;2.75;1.60;;;7.60;91.60;;;;;;5063444;28;20049;-62
2021/01/21 08:38:43;;;;;;;5.30;2.17;;;7.70;91.70;;;;;;5061108;28;20052;-62
2021/01/21 08:41:14;;;;;;;10.60;4.65;;;7.70;91.60;;;;;;5077350;28;20067;-60
2021/01/21 08:43:45;;;;;;;11.05;2.88;;;7.80;91.20;;;;;;5073623;28;20411;-61
2021/01/21 08:46:20;;;;;;;5.15;1.50;;;8.00;90.90;;;;;;5056962;28;20071;-61
2021/01/21 08:48:51;;;;;;;8.30;2.30;;;8.10;90.60;;;;;;5078150;28;20036;-61
2021/01/21 08:51:44;;;;;;;2.45;1.17;;;8.20;90.50;;;;;;5076188;28;20048;-61
2021/01/21 08:54:18;;;;;;;4.03;1.35;;;8.30;90.30;;;;;;5066564;28;20043;-61
2021/01/21 08:57:11;;;;;;;3.85;2.33;;;8.40;90.40;;;;;;5062236;28;20134;-60
2021/01/21 08:59:39;;;;;;;3.55;1.30;;;8.60;89.70;;;;;;5070123;28;20075;-62
2021/01/21 09:02:06;;;;;;;3.60;1.52;;;8.70;89.00;;;;;;5056598;28;20435;-61
2021/01/21 09:04:39;;;;;;;7.43;3.72;;;8.70;88.50;;;;;;5069278;28;20040;-64
2021/01/21 09:07:08;;;;;;;7.80;2.30;;;8.90;87.90;;;;;;5068836;28;20457;-62
2021/01/21 09:09:39;;;;;;;12.80;4.32;;;9.00;87.90;;;;;;5062832;28;20925;-62
2021/01/21 09:12:19;;;;;;;21.85;6.05;;;9.10;87.20;;;;;;5067543;28;20052;-63
2021/01/21 09:15:09;;;;;;;14.50;5.88;;;9.20;86.90;;;;;;5074230;28;20052;-63
2021/01/21 09:17:38;;;;;;;3.45;1.30;;;9.30;86.30;;;;;;5065206;28;20747;-61
2021/01/21 09:20:27;;;;;;;8.68;2.10;;;9.40;85.30;;;;;;5068122;28;20046;-60
2021/01/21 09:23:31;;;;;;;3.65;0.90;;;9.50;84.90;;;;;;5071381;28;20152;-62
2021/01/21 09:26:12;;;;;;;9.82;2.10;;;9.70;83.80;;;;;;5057817;28;20044;-63
2021/01/21 09:28:58;;;;;;;4.40;1.17;;;9.70;83.90;;;;;;5049518;28;20506;-63
2021/01/21 09:31:28;;;;;;;4.00;1.38;;;9.80;83.40;;;;;;5066905;28;20048;-62
2021/01/21 09:33:55;;;;;;;4.05;1.73;;;9.90;82.60;;;;;;5058498;28;20070;-62
2021/01/21 09:36:29;;;;;;;3.78;1.88;;;9.90;82.20;;;;;;5078542;28;20040;-62
2021/01/21 09:38:56;;;;;;;10.00;2.45;;;9.80;82.30;;;;;;5066577;28;20060;-62
2021/01/21 09:41:24;;;;;;;15.70;3.63;;;9.80;82.90;;;;;;5072907;28;20036;-62
2021/01/21 09:43:51;;;;;;;6.57;2.13;;;9.80;82.60;;;;;;5066523;28;20121;-61
2021/01/21 09:46:21;;;;;;;6.55;1.65;;;9.80;82.60;;;;;;5077362;28;20048;-61
2021/01/21 09:48:48;;;;;;;13.65;4.40;;;9.70;82.60;;;;;;5076208;28;20036;-61
2021/01/21 09:51:14;;;;;;;4.43;2.15;;;9.70;83.00;;;;;;5078735;28;20044;-61
2021/01/21 09:53:40;;;;;;;4.35;1.35;;;9.70;83.30;;;;;;5078810;28;20040;-61
2021/01/21 09:56:07;;;;;;;3.55;1.30;;;9.70;83.10;;;;;;5063588;28;20045;-62
2021/01/21 09:58:34;;;;;;;6.55;1.67;;;9.80;82.90;;;;;;5068896;28;20379;-62
2021/01/21 10:01:00;;;;;;;6.40;2.00;;;9.90;83.00;;;;;;5072937;28;20528;-61
2021/01/21 10:03:45;;;;;;;8.38;1.88;;;10.00;82.90;;;;;;5073802;28;20058;-61
2021/01/21 10:06:12;;;;;;;5.22;1.73;;;10.00;82.80;;;;;;5076725;28;20048;-59
2021/01/21 10:08:38;;;;;;;4.13;1.25;;;10.10;82.90;;;;;;5070951;28;20050;-60
2021/01/21 10:11:05;;;;;;;6.22;1.10;;;10.10;82.80;;;;;;5068502;28;20040;-61
2021/01/21 10:13:32;;;;;;;9.38;1.77;;;10.10;82.80;;;;;;5082085;28;20060;-62
2021/01/21 10:15:59;;;;;;;6.22;1.30;;;10.20;82.80;;;;;;5073374;28;20059;-61
2021/01/21 10:18:26;;;;;;;5.60;1.50;;;10.40;82.30;;;;;;5073232;28;20049;-61
2021/01/21 10:20:53;;;;;;;4.20;1.25;;;10.50;81.70;;;;;;5068091;28;20037;-61
2021/01/21 10:23:20;;;;;;;6.22;1.25;;;10.60;81.40;;;;;;5067517;28;20177;-62
2021/01/21 10:25:46;;;;;;;5.45;1.67;;;10.80;80.40;;;;;;5067972;28;20033;-61
2021/01/21 10:28:13;;;;;;;4.32;1.00;;;10.80;81.20;;;;;;5069218;28;20048;-61
2021/01/21 10:30:39;;;;;;;4.85;1.30;;;10.80;80.40;;;;;;5071366;28;20051;-61
2021/01/21 10:33:06;;;;;;;4.82;1.27;;;10.70;80.50;;;;;;5070717;28;20044;-63
2021/01/21 10:35:32;;;;;;;3.30;1.13;;;10.70;81.20;;;;;;5068385;28;20044;-60
2021/01/21 10:38:01;;;;;;;6.00;1.67;;;10.60;81.20;;;;;;5069855;28;20036;-61
2021/01/21 10:40:27;;;;;;;4.65;1.33;;;10.50;81.90;;;;;;5072061;28;20704;-61
2021/01/21 10:42:54;;;;;;;7.93;1.17;;;10.50;82.40;;;;;;5065770;28;20039;-61
2021/01/21 10:45:21;;;;;;;6.60;2.13;;;10.40;82.40;;;;;;5067976;28;20820;-61
2021/01/21 10:47:47;;;;;;;7.00;1.63;;;10.40;82.90;;;;;;5066444;28;20037;-61
2021/01/21 10:50:14;;;;;;;4.28;1.20;;;10.40;83.40;;;;;;5051576;28;20046;-62
2021/01/21 10:52:40;;;;;;;5.00;1.15;;;10.40;83.30;;;;;;5069467;28;20044;-62
2021/01/21 10:55:07;;;;;;;4.18;1.27;;;10.50;83.60;;;;;;5062014;28;20752;-61
2021/01/21 10:57:34;;;;;;;5.97;1.77;;;10.50;83.80;;;;;;5048248;28;20055;-62
2021/01/21 11:00:00;;;;;;;4.10;1.73;;;10.60;84.50;;;;;;5066669;28;20097;-62
2021/01/21 11:02:27;;;;;;;4.18;1.20;;;10.70;84.10;;;;;;5067240;28;20044;-62
2021/01/21 11:04:53;;;;;;;2.63;1.23;;;10.80;83.80;;;;;;5073006;28;20037;-62
2021/01/21 11:07:21;;;;;;;5.03;1.50;;;10.90;83.60;;;;;;5070286;28;20048;-62
2021/01/21 11:09:47;;;;;;;5.47;1.63;;;11.10;83.50;;;;;;5073937;28;20048;-63
2021/01/21 11:12:16;;;;;;;6.88;1.92;;;11.30;82.80;;;;;;5072148;28;20960;-61
2021/01/21 11:14:48;;;;;;;5.10;1.10;;;11.40;81.50;;;;;;5069904;28;20063;-63
2021/01/21 11:17:15;;;;;;;2.10;0.50;;;11.60;80.80;;;;;;5080674;28;20083;-62
2021/01/21 11:19:46;;;;;;;3.00;0.60;;;11.80;78.80;;;;;;5061538;28;20130;-62
2021/01/21 11:22:13;;;;;;;8.55;0.50;;;12.00;77.90;;;;;;5074565;28;20079;-62
2021/01/21 11:24:40;;;;;;;1.40;0.20;;;12.20;76.80;;;;;;5056153;28;20060;-62
2021/01/21 11:27:06;;;;;;;2.10;0.30;;;12.40;75.50;;;;;;5075014;28;20516;-60
2021/01/21 11:29:32;;;;;;;2.53;0.22;;;12.50;75.50;;;;;;5096615;28;20049;-61
2021/01/21 11:31:59;;;;;;;2.58;0.40;;;12.60;73.80;;;;;;5077105;28;20049;-61
2021/01/21 11:34:26;;;;;;;1.65;0.20;;;12.80;73.10;;;;;;5073141;28;20475;-63
2021/01/21 11:36:52;;;;;;;1.67;0.30;;;12.90;73.10;;;;;;5077010;28;20044;-62
2021/01/21 11:39:21;;;;;;;2.40;0.30;;;13.00;73.20;;;;;;5076845;28;20068;-61
2021/01/21 11:41:47;;;;;;;2.75;1.13;;;13.00;72.60;;;;;;5074490;28;20066;-61
2021/01/21 11:44:14;;;;;;;2.15;0.68;;;13.10;72.20;;;;;;5064182;28;20047;-62
2021/01/21 11:46:40;;;;;;;2.88;0.30;;;13.20;71.00;;;;;;5083548;28;20036;-61
2021/01/21 11:49:07;;;;;;;1.55;0.73;;;13.10;70.80;;;;;;5076892;28;20040;-61
2021/01/21 11:51:34;;;;;;;1.75;0.22;;;13.30;70.50;;;;;;5061532;28;20048;-62
2021/01/21 11:54:02;;;;;;;1.30;0.20;;;13.30;70.70;;;;;;5070254;28;20033;-63
2021/01/21 11:56:29;;;;;;;1.40;0.20;;;13.40;70.20;;;;;;5076426;28;20040;-62
2021/01/21 11:58:55;;;;;;;2.45;0.20;;;13.40;68.80;;;;;;5085210;28;20127;-62
2021/01/21 12:01:22;;;;;;;1.70;0.40;;;13.50;69.00;;;;;;5084035;28;20074;-62
2021/01/21 12:03:48;;;;;;;1.02;0.30;;;13.50;69.10;;;;;;5080872;28;20037;-61
2021/01/21 12:06:15;;;;;;;2.00;0.63;;;13.60;68.40;;;;;;5081338;28;20047;-62
2021/01/21 12:08:42;;;;;;;2.40;0.38;;;13.70;67.60;;;;;;5074808;28;20059;-63
2021/01/21 12:11:08;;;;;;;2.63;0.50;;;13.80;67.60;;;;;;5073086;28;20475;-64
2021/01/21 12:13:35;;;;;;;3.88;0.30;;;13.80;66.70;;;;;;5079334;28;20052;-62
2021/01/21 12:16:01;;;;;;;1.83;0.32;;;13.90;66.90;;;;;;5074159;28;20440;-62
2021/01/21 12:18:28;;;;;;;1.45;0.30;;;13.90;66.50;;;;;;5078516;28;20089;-62
2021/01/21 12:20:54;;;;;;;2.92;0.30;;;13.90;66.60;;;;;;5075310;28;20041;-62
2021/01/21 12:23:21;;;;;;;2.15;0.40;;;13.90;66.10;;;;;;5082108;28;20086;-63
2021/01/21 12:25:47;;;;;;;3.83;0.40;;;14.00;66.10;;;;;;5077430;28;20048;-63
2021/01/21 12:28:14;;;;;;;2.33;0.32;;;14.20;65.90;;;;;;5074855;28;20052;-63
2021/01/21 12:30:40;;;;;;;2.15;0.63;;;14.30;65.20;;;;;;5076562;28;20138;-63
2021/01/21 12:33:07;;;;;;;1.52;0.30;;;14.30;65.20;;;;;;5077931;28;20036;-64
2021/01/21 12:35:33;;;;;;;1.75;0.40;;;14.30;65.20;;;;;;5071720;28;20040;-63
2021/01/21 12:38:00;;;;;;;1.42;0.20;;;14.20;64.80;;;;;;5071546;28;20441;-63
2021/01/21 12:40:27;;;;;;;3.92;0.98;;;14.20;65.20;;;;;;5068775;28;20063;-63
2021/01/21 12:42:53;;;;;;;1.88;0.50;;;14.10;65.10;;;;;;5075578;28;20052;-62
2021/01/21 12:45:22;;;;;;;1.38;0.30;;;14.10;65.00;;;;;;5082415;28;20503;-63
2021/01/21 12:47:48;;;;;;;4.25;0.30;;;14.20;64.70;;;;;;5075815;28;20058;-63
2021/01/21 12:50:15;;;;;;;1.98;0.30;;;14.40;64.40;;;;;;5073313;28;20047;-62
2021/01/21 12:52:41;;;;;;;2.97;0.25;;;14.60;64.10;;;;;;5078048;28;20052;-63
2021/01/21 12:55:10;;;;;;;1.05;0.20;;;14.60;63.10;;;;;;5078829;28;20055;-61
2021/01/21 12:57:37;;;;;;;4.55;0.40;;;14.60;63.00;;;;;;5079016;28;20047;-62
2021/01/21 13:00:08;;;;;;;1.80;0.50;;;14.70;62.80;;;;;;5073682;28;20143;-62
2021/01/21 13:02:36;;;;;;;3.88;0.28;;;14.70;62.60;;;;;;5073588;28;20060;-63
2021/01/21 13:05:06;;;;;;;3.10;0.43;;;14.60;62.80;;;;;;5071557;28;20044;-64
2021/01/21 13:07:35;;;;;;;3.97;0.38;;;14.60;62.70;;;;;;5082548;28;20044;-62
2021/01/21 13:10:05;;;;;;;1.65;0.38;;;14.40;62.80;;;;;;5077847;28;20051;-63
2021/01/21 13:12:32;;;;;;;3.92;0.70;;;14.20;63.60;;;;;;5073680;28;20101;-63
2021/01/21 13:14:58;;;;;;;2.60;0.70;;;14.10;64.10;;;;;;5072948;28;20053;-64
2021/01/21 13:17:26;;;;;;;2.80;0.13;;;14.00;64.00;;;;;;5071924;28;20128;-62
2021/01/21 13:19:53;;;;;;;2.78;0.30;;;14.10;64.30;;;;;;5070383;28;20055;-62
2021/01/21 13:22:19;;;;;;;3.75;0.60;;;14.10;64.30;;;;;;5079319;28;20043;-63